createdAt,value
2019-02-15T00:03:52.955Z,7.00
2019-02-15T00:07:57.260Z,6.90
2019-02-15T00:12:01.513Z,6.77
2019-02-15T00:16:05.746Z,7.50
2019-02-15T00:20:14.951Z,7.47
2019-02-15T00:24:19.194Z,7.30
2019-02-15T00:28:23.413Z,8.97
2019-02-15T00:32:27.728Z,10.50
2019-02-15T00:36:31.901Z,7.30
2019-02-15T00:40:36.144Z,6.80
2019-02-15T00:44:40.335Z,7.97
2019-02-15T00:48:44.560Z,7.30
2019-02-15T00:52:54.768Z,8.47
2019-02-15T00:57:21.090Z,7.00
2019-02-15T01:01:35.722Z,8.83
2019-02-15T01:05:59.102Z,7.47
2019-02-15T01:10:25.360Z,8.47
2019-02-15T01:14:29.574Z,8.33
2019-02-15T01:18:34.227Z,6.80
2019-02-15T01:22:38.445Z,6.23
2019-02-15T01:26:45.130Z,7.13
2019-02-15T01:31:08.318Z,6.50
2019-02-15T01:35:18.351Z,8.23
2019-02-15T01:39:28.967Z,7.60
2019-02-15T01:43:46.285Z,9.80
2019-02-15T01:47:51.380Z,7.60
2019-02-15T01:51:55.694Z,7.23
2019-02-15T01:55:59.906Z,8.47
2019-02-15T02:00:04.459Z,8.20
2019-02-15T02:04:08.646Z,8.77
2019-02-15T02:08:19.234Z,8.40
2019-02-15T02:12:23.449Z,10.53
2019-02-15T02:21:31.287Z,9.87
2019-02-15T02:25:35.486Z,8.77
2019-02-15T02:29:39.706Z,9.00
2019-02-15T02:33:43.979Z,10.63
2019-02-15T02:37:48.218Z,8.37
2019-02-15T02:41:52.544Z,9.27
2019-02-15T02:45:56.845Z,8.83
2019-02-15T02:50:03.038Z,11.10
2019-02-15T02:54:07.380Z,6.90
2019-02-15T02:58:11.613Z,11.03
2019-02-15T03:02:15.872Z,8.40
2019-02-15T03:06:20.157Z,7.93
2019-02-15T03:10:24.385Z,8.27
2019-02-15T03:14:28.873Z,9.90
2019-02-15T03:18:33.065Z,12.50
2019-02-15T03:22:37.355Z,10.10
2019-02-15T03:26:41.547Z,10.03
2019-02-15T03:30:46.439Z,9.87
2019-02-15T03:34:50.646Z,11.80
2019-02-15T03:38:59.723Z,11.73
2019-02-15T03:43:03.974Z,9.70
2019-02-15T03:47:08.198Z,11.57
2019-02-15T03:51:12.467Z,10.43
2019-02-15T03:55:16.731Z,14.63
2019-02-15T03:59:20.965Z,9.17
2019-02-15T04:03:25.185Z,10.93
2019-02-15T04:07:29.355Z,10.43
2019-02-15T04:11:33.587Z,10.00
2019-02-15T04:15:37.808Z,9.53
2019-02-15T04:19:42.186Z,10.63
2019-02-15T04:23:46.772Z,7.60
2019-02-15T04:27:51.001Z,11.67
2019-02-15T04:31:55.626Z,11.37
2019-02-15T04:35:59.843Z,10.63
2019-02-15T04:40:04.182Z,10.13
2019-02-15T04:44:08.431Z,10.47
2019-02-15T04:48:12.746Z,9.23
2019-02-15T04:52:16.897Z,10.90
2019-02-15T04:56:21.141Z,8.77
2019-02-15T05:00:25.335Z,11.33
2019-02-15T05:04:29.576Z,7.07
2019-02-15T05:08:34.151Z,10.57
2019-02-15T05:12:38.520Z,11.57
2019-02-15T05:16:43.008Z,8.23
2019-02-15T05:20:47.592Z,9.00
2019-02-15T05:24:51.845Z,7.43
2019-02-15T05:28:56.075Z,9.80
2019-02-15T05:33:00.387Z,8.40
2019-02-15T05:37:04.599Z,8.97
2019-02-15T05:41:08.838Z,9.90
2019-02-15T05:45:13.043Z,10.40
2019-02-15T05:49:17.633Z,10.33
2019-02-15T05:53:21.811Z,8.50
2019-02-15T05:57:26.020Z,13.23
2019-02-15T06:01:30.844Z,9.60
2019-02-15T06:05:35.163Z,8.77
2019-02-15T06:09:39.456Z,11.30
2019-02-15T06:13:43.757Z,11.77
2019-02-15T06:17:48.302Z,9.53
2019-02-15T06:21:52.543Z,10.23
2019-02-15T06:25:57.187Z,10.20
2019-02-15T06:30:03.291Z,10.60
2019-02-15T06:34:07.577Z,9.23
2019-02-15T06:38:12.215Z,9.10
2019-02-15T06:42:16.527Z,12.20
2019-02-15T06:46:20.822Z,7.47
2019-02-15T06:50:25.403Z,12.57
2019-02-15T06:54:29.950Z,13.30
2019-02-15T06:58:35.737Z,11.23
2019-02-15T07:03:02.043Z,10.47
2019-02-15T07:07:06.235Z,10.27
2019-02-15T07:11:10.908Z,8.77
2019-02-15T07:15:15.163Z,10.57
2019-02-15T07:19:19.422Z,10.07
2019-02-15T07:23:23.648Z,10.13
2019-02-15T07:27:28.160Z,9.43
2019-02-15T07:31:32.708Z,9.70
2019-02-15T07:35:36.986Z,8.67
2019-02-15T07:39:41.249Z,9.37
2019-02-15T07:43:45.475Z,12.90
2019-02-15T07:47:49.690Z,8.47
2019-02-15T07:51:53.939Z,8.67
2019-02-15T07:55:58.306Z,8.67
2019-02-15T08:00:02.553Z,7.30
2019-02-15T08:04:06.933Z,8.73
2019-02-15T08:08:11.175Z,10.10
2019-02-15T08:12:15.482Z,8.30
2019-02-15T08:16:19.692Z,7.47
2019-02-15T08:20:23.911Z,9.30
2019-02-15T08:24:28.162Z,10.57
2019-02-15T08:28:32.722Z,10.80
2019-02-15T08:32:36.901Z,10.13
2019-02-15T08:36:41.290Z,8.27
2019-02-15T08:44:47.860Z,7.20
2019-02-15T08:48:52.111Z,8.60
2019-02-15T08:52:56.338Z,11.33
2019-02-15T08:57:00.964Z,8.17
2019-02-15T09:01:05.203Z,6.77
2019-02-15T09:05:11.301Z,11.50
2019-02-15T09:09:15.554Z,6.53
2019-02-15T09:13:19.732Z,8.57
2019-02-15T09:17:23.960Z,6.70
2019-02-15T09:21:28.329Z,7.80
2019-02-15T09:25:32.612Z,6.70
2019-02-15T09:29:36.809Z,8.13
2019-02-15T09:33:41.131Z,6.53
2019-02-15T09:37:45.406Z,6.60
2019-02-15T09:41:49.613Z,6.60
2019-02-15T09:45:53.832Z,6.90
2019-02-15T09:49:58.055Z,10.03
2019-02-15T09:54:02.270Z,8.80
2019-02-15T09:58:06.516Z,8.73
2019-02-15T10:02:10.851Z,7.37
2019-02-15T10:06:15.089Z,9.27
2019-02-15T10:10:19.373Z,9.03
2019-02-15T10:14:23.648Z,8.97
2019-02-15T10:18:27.880Z,7.57
2019-02-15T10:22:32.315Z,7.87
2019-02-15T10:26:36.532Z,9.53
2019-02-15T10:30:40.815Z,7.80
2019-02-15T10:34:44.999Z,6.70
2019-02-15T10:38:49.405Z,9.63
2019-02-15T10:42:53.672Z,8.53
2019-02-15T10:46:57.965Z,8.10
2019-02-15T10:51:02.523Z,8.70
2019-02-15T10:55:07.848Z,6.80
2019-02-15T10:59:12.066Z,9.20
2019-02-15T11:03:16.272Z,7.37
2019-02-15T11:07:20.509Z,7.73
2019-02-15T11:11:24.738Z,7.27
2019-02-15T11:15:28.953Z,8.13
2019-02-15T11:19:33.532Z,6.57
2019-02-15T11:23:37.853Z,7.77
2019-02-15T11:27:42.058Z,7.50
2019-02-15T11:31:46.350Z,5.60
2019-02-15T11:35:50.685Z,4.83
2019-02-15T11:39:54.930Z,6.07
2019-02-15T11:43:59.175Z,6.93
2019-02-15T11:48:03.368Z,6.50
2019-02-15T11:52:07.684Z,7.10
2019-02-15T11:56:11.923Z,6.33
2019-02-15T12:00:21.083Z,7.03
2019-02-15T12:04:25.118Z,6.13
2019-02-15T12:08:29.384Z,6.20
2019-02-15T12:12:34.010Z,6.50
2019-02-15T12:16:38.711Z,6.70
2019-02-15T12:20:42.958Z,7.57
2019-02-15T12:24:47.175Z,6.83
2019-02-15T12:28:51.711Z,8.63
2019-02-15T12:32:56.585Z,6.97
2019-02-15T12:37:00.837Z,8.37
2019-02-15T12:45:09.404Z,10.03
2019-02-15T12:49:13.678Z,8.50
2019-02-15T12:53:17.932Z,9.87
2019-02-15T12:57:22.162Z,9.17
2019-02-15T13:01:26.426Z,7.47
2019-02-15T13:05:30.660Z,6.63
2019-02-15T13:09:34.862Z,7.63
2019-02-15T13:13:39.089Z,6.10
2019-02-15T13:17:43.504Z,7.20
2019-02-15T13:21:48.072Z,6.67
2019-02-15T13:25:52.626Z,10.13
2019-02-15T13:29:57.192Z,6.53
2019-02-15T13:34:01.773Z,7.13
2019-02-15T13:38:06.228Z,7.43
2019-02-15T13:42:10.466Z,6.83
2019-02-15T13:46:14.955Z,6.70
2019-02-15T13:50:19.411Z,6.93
2019-02-15T13:54:23.771Z,8.23
2019-02-15T13:58:28.179Z,6.90
2019-02-15T14:02:32.516Z,8.23
2019-02-15T14:06:36.943Z,9.00
2019-02-15T14:10:41.190Z,5.27
2019-02-15T14:14:45.428Z,6.23
2019-02-15T14:18:49.625Z,5.93
2019-02-15T14:22:53.899Z,7.10
2019-02-15T14:26:58.131Z,10.87
2019-02-15T14:31:02.329Z,8.17
2019-02-15T14:35:07.163Z,6.57
2019-02-15T14:39:12.528Z,6.53
2019-02-15T14:43:17.096Z,7.57
2019-02-15T14:47:21.343Z,7.47
2019-02-15T14:51:25.632Z,6.57
2019-02-15T14:55:29.820Z,7.13
2019-02-15T14:59:34.075Z,7.37
2019-02-15T15:03:38.274Z,5.67
2019-02-15T15:07:42.586Z,8.93
2019-02-15T15:11:47.069Z,6.50
2019-02-15T15:15:51.377Z,6.10
2019-02-15T15:19:55.613Z,4.57
2019-02-15T15:23:59.870Z,6.20
2019-02-15T15:28:04.157Z,7.73
2019-02-15T15:32:08.769Z,7.77
2019-02-15T15:36:13.277Z,6.13
2019-02-15T15:40:17.570Z,8.00
2019-02-15T15:44:21.846Z,7.03
2019-02-15T15:48:26.285Z,5.20
2019-02-15T15:52:30.533Z,9.47
2019-02-15T15:56:34.762Z,5.53
2019-02-15T16:00:39.515Z,5.20
2019-02-15T16:04:56.170Z,4.57
2019-02-15T16:09:00.430Z,6.50
2019-02-15T16:13:04.660Z,5.03
2019-02-15T16:17:09.002Z,7.57
2019-02-15T16:21:13.249Z,5.30
2019-02-15T16:25:17.478Z,4.97
2019-02-15T16:29:21.686Z,6.43
2019-02-15T16:33:26.125Z,7.57
2019-02-15T16:37:30.320Z,8.17
2019-02-15T16:41:34.565Z,6.87
2019-02-15T16:45:38.788Z,8.93
2019-02-15T16:49:43.409Z,8.30
2019-02-15T16:53:48.132Z,7.77
2019-02-15T16:57:52.376Z,7.83
2019-02-15T17:01:56.634Z,7.27
2019-02-15T17:06:00.995Z,6.23
2019-02-15T17:10:05.591Z,7.53
2019-02-15T17:14:09.884Z,9.13
2019-02-15T17:18:14.461Z,8.03
2019-02-15T17:22:18.693Z,6.30
2019-02-15T17:26:22.939Z,7.97
2019-02-15T17:30:27.626Z,6.83
2019-02-15T17:38:41.971Z,8.37
2019-02-15T17:42:46.250Z,6.97
2019-02-15T17:46:50.442Z,7.67
2019-02-15T17:50:54.676Z,6.40
2019-02-15T17:54:58.896Z,8.40
2019-02-15T17:59:03.131Z,8.77
2019-02-15T18:03:07.659Z,7.73
2019-02-15T18:07:12.024Z,8.43
2019-02-15T18:11:16.216Z,6.93
2019-02-15T18:15:20.466Z,6.70
2019-02-15T18:19:24.660Z,7.73
2019-02-15T18:23:28.885Z,6.67
2019-02-15T18:27:33.143Z,7.47
2019-02-15T18:31:37.318Z,10.97
2019-02-15T18:35:41.554Z,34.57
2019-02-15T18:39:45.921Z,15.60
2019-02-15T18:43:50.107Z,13.33
2019-02-15T18:47:54.471Z,9.83
2019-02-15T18:51:58.808Z,9.13
2019-02-15T18:56:03.029Z,9.30
2019-02-15T19:00:09.426Z,10.80
2019-02-15T19:04:13.633Z,10.07
2019-02-15T19:08:17.965Z,10.20
2019-02-15T19:12:22.228Z,9.53
2019-02-15T19:16:26.530Z,9.27
2019-02-15T19:20:30.765Z,9.20
2019-02-15T19:24:35.140Z,10.33
2019-02-15T19:28:39.453Z,9.47
2019-02-15T19:32:43.802Z,9.83
2019-02-15T19:36:47.946Z,11.13
2019-02-15T19:40:52.195Z,12.47
2019-02-15T19:44:56.469Z,10.53
2019-02-15T19:49:00.655Z,11.23
2019-02-15T19:53:04.882Z,13.60
2019-02-15T19:57:09.122Z,9.60
2019-02-15T20:01:13.613Z,12.20
2019-02-15T20:05:17.858Z,13.10
2019-02-15T20:09:22.109Z,12.43
2019-02-15T20:13:26.322Z,15.13
2019-02-15T20:17:31.804Z,9.57
2019-02-15T20:21:36.060Z,7.70
2019-02-15T20:25:40.603Z,11.80
2019-02-15T20:29:49.576Z,7.80
2019-02-15T20:33:50.829Z,9.03
2019-02-15T20:37:55.133Z,10.70
2019-02-15T20:41:59.346Z,14.40
2019-02-15T20:46:03.672Z,11.20
2019-02-15T20:50:08.658Z,10.77
2019-02-15T20:54:13.308Z,15.67
2019-02-15T20:58:17.564Z,13.33
2019-02-15T21:02:21.809Z,13.23
2019-02-15T21:06:26.042Z,12.07
2019-02-15T21:10:30.352Z,12.00
2019-02-15T21:14:34.860Z,12.50
2019-02-15T21:18:39.093Z,11.30
2019-02-15T21:22:43.361Z,15.20
2019-02-15T21:26:47.587Z,13.17
2019-02-15T21:30:51.775Z,14.37
2019-02-15T21:34:56.358Z,12.03
2019-02-15T21:39:00.915Z,12.07
2019-02-15T21:43:05.263Z,13.53
2019-02-15T21:47:09.482Z,10.83
2019-02-15T21:51:13.726Z,11.97
2019-02-15T21:55:17.953Z,15.50
2019-02-15T21:59:22.169Z,11.10
2019-02-15T22:03:26.908Z,13.33
2019-02-15T22:07:31.087Z,15.07
2019-02-15T22:11:35.407Z,14.20
2019-02-15T22:15:39.959Z,14.13
2019-02-15T22:19:44.181Z,13.77
2019-02-15T22:23:48.425Z,14.73
2019-02-15T22:27:52.597Z,16.90
2019-02-15T22:31:56.785Z,17.70
2019-02-15T22:36:01.351Z,13.00
2019-02-15T22:40:28.566Z,14.87
2019-02-15T22:44:33.103Z,15.80
2019-02-15T22:48:37.322Z,14.20
2019-02-15T22:52:41.533Z,16.40
2019-02-15T22:56:45.755Z,16.67
2019-02-15T23:01:05.593Z,18.97
2019-02-15T23:05:09.842Z,13.47
2019-02-15T23:09:23.733Z,15.23
2019-02-15T23:13:27.979Z,14.37
2019-02-15T23:17:32.167Z,12.50
2019-02-15T23:21:36.796Z,14.83
2019-02-15T23:25:41.104Z,12.07
2019-02-15T23:29:45.624Z,14.83
2019-02-15T23:33:49.919Z,14.57
2019-02-15T23:37:54.092Z,12.57
2019-02-15T23:41:58.336Z,13.47
2019-02-15T23:46:02.530Z,15.13
2019-02-15T23:50:07.904Z,17.80
2019-02-15T23:54:12.141Z,17.43
2019-02-15T23:58:16.716Z,15.90
